Seabourn Legend — C6FR6 — position and weather

sailwx.info

Track history (hours):
 
Tides and Currents Weather Stations Pressure Air Temp Water Temp Dewpoint Dewpoint Depression Visibility Wind Speed Wind Dir Waves Ship Positions

Seabourn Legend

Operator: Cunard Seabourn

Last reported at 2019-Oct-06 02:26 UTC. Time now 2019-Oct-23 20:27 UTC.
Position N 27°40' W 115°28'.
Warning: this ship's position is 17 days out of date.

Length 135 m; draft 5.6 m.

Type: Passenger vessel. MMSI: 311085000.

Date/timePositionNaut miles runAvg speedWind from/ knotsBaromVisibWave heightAir tempDewpointWater temp
2019-Oct-06 02:26N 27°40' W 115°28'4312.6
2019-Oct-05 23:00N 28°15' W 115°57'15912.3
2019-Oct-05 10:03N 30°47' W 116°49'2512.3
2019-Oct-05 08:03N 31°11' W 116°57'1313.0
2019-Oct-05 07:02N 31°23' W 117°01'012.9
2019-Oct-05 07:00N 31°24' W 117°01'613.0
2019-Oct-05 06:30N 31°30' W 117°04'612.9
2019-Oct-05 06:00N 31°36' W 117°06'612.9
2019-Oct-05 05:30N 31°42' W 117°08'612.8
2019-Oct-05 05:00N 31°49' W 117°10'612.7
2019-Oct-05 04:30N 31°55' W 117°12'612.9
2019-Oct-05 04:00N 32°01' W 117°14'612.7
2019-Oct-05 03:31N 32°07' W 117°16'713.1
2019-Oct-05 03:00N 32°13' W 117°18'713.5
2019-Oct-05 02:30N 32°20' W 117°20'713.5
2019-Oct-05 02:00N 32°26' W 117°22'713.0
2019-Oct-05 01:31N 32°32' W 117°18'713.1
2019-Oct-05 01:00N 32°37' W 117°14'510.7
2019-Oct-05 00:30N 32°43' W 117°13'2 4.7
2019-Oct-04 23:59N 32°43' W 117°10'0 0.0
2019-Oct-04 23:29N 32°43' W 117°10'0 0.0
2019-Oct-04 22:59N 32°43' W 117°10'0 0.0
2019-Oct-04 22:29N 32°43' W 117°10'0 0.0
2019-Oct-04 21:59N 32°43' W 117°10'0 0.0
2019-Oct-04 21:29N 32°43' W 117°10'0 0.0
2019-Oct-04 20:59N 32°43' W 117°10'0 0.0
2019-Oct-04 20:29N 32°43' W 117°10'0 0.0
2019-Oct-04 19:59N 32°43' W 117°10'0 0.0
2019-Oct-04 19:29N 32°43' W 117°10'0 0.0
2019-Oct-04 18:59N 32°43' W 117°10'0 0.0
2019-Oct-04 18:29N 32°43' W 117°10'0 0.0
2019-Oct-04 17:59N 32°43' W 117°10'0 0.0
2019-Oct-04 17:29N 32°43' W 117°10'0 0.0
2019-Oct-04 17:00N 32°43' W 117°10'0 0.0
2019-Oct-04 16:30N 32°43' W 117°10'0 0.0
2019-Oct-04 16:00N 32°43' W 117°10'0 0.0
2019-Oct-04 15:30N 32°43' W 117°10'0 0.0
2019-Oct-04 15:00N 32°43' W 117°10'0 0.0
2019-Oct-04 14:30N 32°43' W 117°10'0 0.0
2019-Oct-04 14:01N 32°43' W 117°10'0 0.0
2019-Oct-04 13:31N 32°43' W 117°10'3 5.4
2019-Oct-04 13:01N 32°42' W 117°14'611.1
2019-Oct-04 12:31N 32°37' W 117°14'510.5
2019-Oct-04 12:01N 32°36' W 117°21'612.6
2019-Oct-04 11:31N 32°36' W 117°28'612.5
2019-Oct-04 11:01N 32°36' W 117°35'612.4
2019-Oct-04 10:30N 32°36' W 117°43'612.3
2019-Oct-04 10:00N 32°36' W 117°50'612.2
2019-Oct-04 09:31N 32°35' W 117°57'612.3
2019-Oct-04 09:00N 32°35' W 118°05'510.6
2019-Oct-04 08:31N 32°35' W 118°11'5 9.8
2019-Oct-04 08:00N 32°35' W 118°17'5 9.8
2019-Oct-04 07:30N 32°35' W 118°23'5 9.8
2019-Oct-04 07:01N 32°35' W 118°28'5 9.5
2019-Oct-04 06:30N 32°35' W 118°34'5 9.7
2019-Oct-04 06:00N 32°35' W 118°40'5 9.8
2019-Oct-04 05:30N 32°34' W 118°45'5 9.7
2019-Oct-04 05:00N 32°34' W 118°51'510.2
2019-Oct-04 04:30N 32°37' W 118°56'510.2
2019-Oct-04 04:00N 32°40' W 119°01'510.4
2019-Oct-04 03:31N 32°42' W 119°06'610.9
2019-Oct-04 02:58N 32°46' W 119°12'510.7
2019-Oct-04 02:29N 32°49' W 119°17'510.5
2019-Oct-04 02:00N 32°52' W 119°22'510.4
2019-Oct-04 01:31N 32°55' W 119°27'510.3
2019-Oct-04 01:01N 32°58' W 119°32'510.0
2019-Oct-04 00:30N 33°01' W 119°37'5 9.5
2019-Oct-04 00:01N 33°03' W 119°42'5 9.4
2019-Oct-03 23:31N 33°06' W 119°46'5 9.5
2019-Oct-03 23:00N 33°09' W 119°51'5 9.5
2019-Oct-03 22:30N 33°11' W 119°56'612.5
2019-Oct-03 22:01N 33°15' W 120°02'612.5
2019-Oct-03 21:30N 33°19' W 120°08'612.0
2019-Oct-03 21:00N 33°22' W 120°14'612.3
2019-Oct-03 20:30N 33°26' W 120°20'612.5
2019-Oct-03 20:00N 33°29' W 120°26'612.6
2019-Oct-03 19:31N 33°33' W 120°32'612.2
2019-Oct-03 19:00N 33°37' W 120°38'712.3
2019-Oct-03 18:27N 33°43' W 120°41'6312.3
2019-Oct-03 13:22N 34°40' W 121°13'512.2
2019-Oct-03 12:58N 34°44' W 121°15'612.1
2019-Oct-03 12:31N 34°49' W 121°18'10012.4
2019-Oct-03 04:31N 36°19' W 122°12'712.8
2019-Oct-03 04:00N 36°25' W 122°09'713.3
2019-Oct-03 03:29N 36°31' W 122°05'21 1.3
2019-Oct-02 11:42N 36°48' W 122°20'410.0
2019-Oct-02 11:17N 36°50' W 122°25'312.8
2019-Oct-02 11:00N 36°51' W 122°29'612.3
2019-Oct-02 10:30N 36°54' W 122°36'612.9
2019-Oct-02 10:01N 36°60' W 122°39'813.1
2019-Oct-02 09:25N 37°07' W 122°42'613.1
2019-Oct-02 08:59N 37°13' W 122°44'613.1
2019-Oct-02 08:30N 37°19' W 122°44'713.2
2019-Oct-02 08:00N 37°25' W 122°44'613.1
2019-Oct-02 07:30N 37°32' W 122°44'713.0
2019-Oct-02 07:00N 37°38' W 122°44'611.6
2019-Oct-02 06:30N 37°44' W 122°42'612.4
2019-Oct-02 06:00N 37°47' W 122°35'612.1
2019-Oct-02 05:30N 37°49' W 122°28'3 5.0
2019-Oct-02 04:59N 37°48' W 122°24'0 0.0
2019-Oct-02 04:29N 37°48' W 122°24'0 0.0
2019-Oct-02 03:59N 37°48' W 122°24'0 0.0
2019-Oct-02 03:29N 37°48' W 122°24'0 0.0
2019-Oct-02 02:59N 37°48' W 122°24'0 0.0
2019-Oct-02 02:29N 37°48' W 122°24'0 0.0
2019-Oct-02 01:59N 37°48' W 122°24'0 0.0
2019-Oct-02 01:29N 37°48' W 122°24'0 0.0
2019-Oct-02 00:56N 37°48' W 122°24'0 0.0
2019-Oct-02 00:26N 37°48' W 122°24'0 0.0
2019-Oct-01 23:59N 37°48' W 122°24'0 0.0
2019-Oct-01 23:29N 37°48' W 122°24'0 0.0
2019-Oct-01 22:56N 37°48' W 122°24'0 0.0
2019-Oct-01 22:29N 37°48' W 122°24'0 0.0
2019-Oct-01 21:59N 37°48' W 122°24'0 0.0
2019-Oct-01 21:29N 37°48' W 122°24'0 0.0
2019-Oct-01 20:56N 37°48' W 122°24'0 0.0
2019-Oct-01 20:29N 37°48' W 122°24'0 0.0
2019-Oct-01 19:59N 37°48' W 122°24'0 0.0
2019-Oct-01 19:29N 37°48' W 122°24'0 0.0
2019-Oct-01 18:59N 37°48' W 122°24'0 0.0
2019-Oct-01 18:29N 37°48' W 122°24'0 0.0
2019-Oct-01 17:59N 37°48' W 122°24'0 0.0
2019-Oct-01 17:29N 37°48' W 122°24'0 0.0
2019-Oct-01 16:59N 37°48' W 122°24'0 0.0
2019-Oct-01 16:29N 37°48' W 122°24'0 0.0
2019-Oct-01 15:59N 37°48' W 122°24'0 0.0
2019-Oct-01 15:29N 37°48' W 122°24'0 0.0
2019-Oct-01 14:59N 37°48' W 122°24'0 0.0
2019-Oct-01 14:29N 37°48' W 122°24'0 0.0
2019-Oct-01 13:59N 37°48' W 122°24'0 0.0
2019-Oct-01 13:29N 37°48' W 122°24'0 0.0
2019-Oct-01 12:59N 37°48' W 122°24'0 0.0
2019-Oct-01 12:29N 37°48' W 122°24'0 0.0
2019-Oct-01 11:59N 37°48' W 122°24'0 0.0
2019-Oct-01 11:29N 37°48' W 122°24'0 0.0
2019-Oct-01 10:59N 37°48' W 122°24'0 0.0
2019-Oct-01 10:23N 37°48' W 122°24'0 0.0
2019-Oct-01 09:59N 37°48' W 122°24'0 0.0
2019-Oct-01 09:29N 37°48' W 122°24'0 0.0
2019-Oct-01 08:59N 37°48' W 122°24'0 0.0
2019-Oct-01 08:29N 37°48' W 122°24'0 0.0
2019-Oct-01 07:59N 37°48' W 122°24'0 0.0
2019-Oct-01 07:29N 37°48' W 122°24'0 0.0
2019-Oct-01 06:59N 37°48' W 122°24'0 0.0
2019-Oct-01 06:29N 37°48' W 122°24'0 0.0
2019-Oct-01 05:59N 37°48' W 122°24'0 0.0
2019-Oct-01 05:29N 37°48' W 122°24'0 0.0
2019-Oct-01 04:59N 37°48' W 122°24'0 0.0
2019-Oct-01 04:29N 37°48' W 122°24'0 0.0
2019-Oct-01 03:59N 37°48' W 122°24'0 0.0
2019-Oct-01 03:28N 37°48' W 122°24'0 0.0
2019-Oct-01 02:59N 37°48' W 122°24'0 0.0
2019-Oct-01 02:29N 37°48' W 122°24'0 0.0
2019-Oct-01 01:59N 37°48' W 122°24'0 0.0
2019-Oct-01 01:29N 37°48' W 122°24'0 0.0
2019-Oct-01 00:58N 37°48' W 122°24'0 0.0
2019-Oct-01 00:28N 37°48' W 122°24'0 0.0
2019-Sep-30 23:59N 37°48' W 122°24'0 0.0
2019-Sep-30 23:29N 37°48' W 122°24'0 0.0
2019-Sep-30 22:58N 37°48' W 122°24'0 0.0
2019-Sep-30 22:28N 37°48' W 122°24'0 0.0
2019-Sep-30 21:58N 37°48' W 122°24'0 0.0
2019-Sep-30 21:28N 37°48' W 122°24'0 0.0
2019-Sep-30 20:59N 37°48' W 122°24'0 0.0
2019-Sep-30 20:28N 37°48' W 122°24'0 0.0
2019-Sep-30 19:58N 37°48' W 122°24'0 0.0
2019-Sep-30 19:28N 37°48' W 122°24'0 0.0
2019-Sep-30 18:58N 37°48' W 122°24'0 0.0
2019-Sep-30 18:28N 37°48' W 122°24'0 0.0
2019-Sep-30 17:58N 37°48' W 122°24'0 0.1
2019-Sep-30 17:30N 37°49' W 122°24'3 5.2
2019-Sep-30 17:01N 37°49' W 122°28'612.9
2019-Sep-30 16:31N 37°47' W 122°35'510.6
2019-Sep-30 16:00N 37°45' W 122°41'4 8.9
2019-Sep-30 15:31N 37°46' W 122°47'611.9
2019-Sep-30 15:01N 37°49' W 122°53'612.2
2019-Sep-30 14:30N 37°52' W 122°60'612.1
2019-Sep-30 14:01N 37°55' W 123°06'611.9
2019-Sep-30 13:30N 37°59' W 123°13'612.0
2019-Sep-30 13:00N 38°04' W 123°17'613.0
2019-Sep-30 12:31N 38°09' W 123°23'713.2
2019-Sep-30 12:01N 38°14' W 123°28'713.4
2019-Sep-30 11:30N 38°19' W 123°34'613.1
2019-Sep-30 11:01N 38°23' W 123°39'612.8
2019-Sep-30 10:30N 38°28' W 123°45'612.4
2019-Sep-30 10:01N 38°33' W 123°50'41113.1
2019-Sep-29 02:35N 45°22' W 124°29'313.5
2019-Sep-29 02:20N 45°26' W 124°28'2113.7
2019-Sep-29 00:49N 45°46' W 124°24'1113.4
2019-Sep-29 00:01N 45°57' W 124°21'312.8
2019-Sep-28 23:48N 45°59' W 124°20'512.3
2019-Sep-28 23:25N 46°03' W 124°17'510.6
2019-Sep-28 22:59N 46°07' W 124°13'7 8.2
2019-Sep-28 22:09N 46°13' W 124°08'910.6
2019-Sep-28 21:16N 46°12' W 123°55'15 9.5
2019-Sep-28 19:40N 46°15' W 123°34'310.5
2019-Sep-28 19:22N 46°16' W 123°29'410.4
2019-Sep-28 19:00N 46°13' W 123°26'7 8.9
2019-Sep-28 18:11N 46°09' W 123°17'210.9
2019-Sep-28 18:00N 46°09' W 123°15'510.8
2019-Sep-28 17:30N 46°11' W 123°08'612.5
2019-Sep-28 17:00N 46°08' W 123°00'510.9
2019-Sep-28 16:31N 46°05' W 122°54'10 9.7
2019-Sep-28 15:31N 45°56' W 122°48'011.3
2019-Sep-28 15:29N 45°55' W 122°48'5 9.2
2019-Sep-28 14:59N 45°51' W 122°47'611.9
2019-Sep-28 14:30N 45°45' W 122°46'611.6
2019-Sep-28 14:00N 45°39' W 122°46'3 6.9
2019-Sep-28 13:30N 45°36' W 122°47'1 1.2
2019-Sep-28 12:59N 45°36' W 122°46'0 0.0
2019-Sep-28 12:11N 45°36' W 122°46'0 0.0
2019-Sep-28 11:59N 45°36' W 122°46'0 0.0
2019-Sep-28 11:29N 45°36' W 122°46'0 0.0
2019-Sep-28 10:59N 45°36' W 122°46'0 0.0
2019-Sep-28 10:29N 45°36' W 122°46'0 0.0
2019-Sep-28 09:59N 45°36' W 122°46'0 0.0
2019-Sep-28 09:26N 45°36' W 122°46'0 0.0
2019-Sep-28 08:59N 45°36' W 122°46'0 0.0
2019-Sep-28 08:29N 45°36' W 122°46'0 0.0
2019-Sep-28 07:59N 45°36' W 122°46'0 0.0
2019-Sep-28 07:26N 45°36' W 122°46'0 0.0
2019-Sep-28 06:56N 45°36' W 122°46'0 0.0
2019-Sep-28 06:29N 45°36' W 122°46'0 0.0
2019-Sep-28 05:41N 45°36' W 122°46'0 0.0
2019-Sep-28 05:23N 45°36' W 122°46'0 0.0
2019-Sep-28 04:56N 45°36' W 122°46'0 0.0
2019-Sep-28 04:23N 45°36' W 122°46'0 0.0
2019-Sep-28 03:53N 45°36' W 122°46'0 0.0
2019-Sep-28 03:28N 45°36' W 122°46'0 0.0
2019-Sep-28 02:43N 45°36' W 122°46'0 0.1
2019-Sep-28 02:28N 45°36' W 122°46'0 0.0
2019-Sep-28 01:58N 45°36' W 122°46'0 0.0
2019-Sep-28 01:13N 45°36' W 122°46'0 0.0
2019-Sep-28 00:52N 45°36' W 122°46'0 0.0
2019-Sep-27 13:25N 45°36' W 122°46'0 0.0
2019-Sep-27 13:00N 45°36' W 122°46'1 2.8
2019-Sep-27 12:29N 45°37' W 122°47'3 5.4
2019-Sep-27 12:00N 45°39' W 122°46'5 9.9
2019-Sep-27 11:28N 45°45' W 122°46'511.2
2019-Sep-27 11:00N 45°50' W 122°48'611.4
2019-Sep-27 10:27N 45°56' W 122°48'511.2
2019-Sep-27 10:00N 46°01' W 122°51'511.0
2019-Sep-27 09:30N 46°05' W 122°55'611.9
2019-Sep-27 09:00N 46°09' W 123°02'611.5
2019-Sep-27 08:30N 46°11' W 123°09'611.4
2019-Sep-27 08:00N 46°09' W 123°17'5 9.7
2019-Sep-27 07:30N 46°09' W 123°24'5 9.6
2019-Sep-27 07:00N 46°14' W 123°26'510.4
2019-Sep-27 06:30N 46°15' W 123°33'714.1
2019-Sep-27 05:59N 46°14' W 123°43'611.3
2019-Sep-27 05:29N 46°12' W 123°51'612.8
2019-Sep-27 05:00N 46°14' W 123°59'611.8
2019-Sep-27 04:30N 46°14' W 124°07'8 8.9
2019-Sep-27 03:39N 46°14' W 124°18'211.7
2019-Sep-27 03:27N 46°16' W 124°21'510.2
2019-Sep-27 02:57N 46°20' W 124°25'510.3
2019-Sep-27 02:30N 46°24' W 124°28'12511.3
2019-Sep-26 15:29N 48°17' W 125°46'5 9.9
2019-Sep-26 15:00N 48°19' W 125°40'510.2
2019-Sep-26 14:30N 48°22' W 125°34'510.3
2019-Sep-26 14:00N 48°25' W 125°27'710.2
2019-Sep-26 13:21N 48°28' W 125°18'410.9
2019-Sep-26 12:56N 48°30' W 125°12'510.4
2019-Sep-26 12:30N 48°31' W 125°06'510.9
2019-Sep-26 12:01N 48°31' W 124°57'510.3
2019-Sep-26 11:31N 48°31' W 124°50'510.4
2019-Sep-26 11:01N 48°30' W 124°42'510.0
2019-Sep-26 10:31N 48°28' W 124°35'510.1
2019-Sep-26 10:00N 48°26' W 124°28'510.4
2019-Sep-26 09:30N 48°24' W 124°21'611.2
2019-Sep-26 09:01N 48°22' W 124°13'611.4
2019-Sep-26 08:31N 48°20' W 124°05'611.0
2019-Sep-26 08:01N 48°18' W 123°57'611.5
2019-Sep-26 07:30N 48°17' W 123°49'511.0
2019-Sep-26 07:00N 48°17' W 123°40'511.0
2019-Sep-26 06:30N 48°15' W 123°32'611.9
2019-Sep-26 06:00N 48°12' W 123°25'510.1
2019-Sep-26 05:30N 48°09' W 123°19'714.4
2019-Sep-26 04:59N 48°12' W 123°09'714.5
2019-Sep-26 04:30N 48°12' W 122°58'915.4
2019-Sep-26 03:54N 48°10' W 122°45'715.7
2019-Sep-26 03:29N 48°05' W 122°39'816.3
2019-Sep-26 03:00N 47°57' W 122°33'715.0
2019-Sep-26 02:30N 47°51' W 122°28'  
Track history (hours):
 
Tides and Currents Weather Stations Pressure Air Temp Water Temp Dewpoint Dewpoint Depression Visibility Wind Speed Wind Dir Waves Ship Positions

Seabourn Legend

Operator: Cunard Seabourn

Last reported at 2019-Oct-06 02:26 UTC. Time now 2019-Oct-23 20:27 UTC.
Position N 27°40' W 115°28'.
Warning: this ship's position is 17 days out of date.

Length 135 m; draft 5.6 m.

Type: Passenger vessel. MMSI: 311085000.

Date/timePositionNaut miles runAvg speedWind from/ knotsBaromVisibWave heightAir tempDewpointWater temp
2019-Oct-06 02:26N 27°40' W 115°28'4312.6
2019-Oct-05 23:00N 28°15' W 115°57'15912.3
2019-Oct-05 10:03N 30°47' W 116°49'2512.3
2019-Oct-05 08:03N 31°11' W 116°57'1313.0
2019-Oct-05 07:02N 31°23' W 117°01'012.9
2019-Oct-05 07:00N 31°24' W 117°01'613.0
2019-Oct-05 06:30N 31°30' W 117°04'612.9
2019-Oct-05 06:00N 31°36' W 117°06'612.9
2019-Oct-05 05:30N 31°42' W 117°08'612.8
2019-Oct-05 05:00N 31°49' W 117°10'612.7
2019-Oct-05 04:30N 31°55' W 117°12'612.9
2019-Oct-05 04:00N 32°01' W 117°14'612.7
2019-Oct-05 03:31N 32°07' W 117°16'713.1
2019-Oct-05 03:00N 32°13' W 117°18'713.5
2019-Oct-05 02:30N 32°20' W 117°20'713.5
2019-Oct-05 02:00N 32°26' W 117°22'713.0
2019-Oct-05 01:31N 32°32' W 117°18'713.1
2019-Oct-05 01:00N 32°37' W 117°14'510.7
2019-Oct-05 00:30N 32°43' W 117°13'2 4.7
2019-Oct-04 23:59N 32°43' W 117°10'0 0.0
2019-Oct-04 23:29N 32°43' W 117°10'0 0.0
2019-Oct-04 22:59N 32°43' W 117°10'0 0.0
2019-Oct-04 22:29N 32°43' W 117°10'0 0.0
2019-Oct-04 21:59N 32°43' W 117°10'0 0.0
2019-Oct-04 21:29N 32°43' W 117°10'0 0.0
2019-Oct-04 20:59N 32°43' W 117°10'0 0.0
2019-Oct-04 20:29N 32°43' W 117°10'0 0.0
2019-Oct-04 19:59N 32°43' W 117°10'0 0.0
2019-Oct-04 19:29N 32°43' W 117°10'0 0.0
2019-Oct-04 18:59N 32°43' W 117°10'0 0.0
2019-Oct-04 18:29N 32°43' W 117°10'0 0.0
2019-Oct-04 17:59N 32°43' W 117°10'0 0.0
2019-Oct-04 17:29N 32°43' W 117°10'0 0.0
2019-Oct-04 17:00N 32°43' W 117°10'0 0.0
2019-Oct-04 16:30N 32°43' W 117°10'0 0.0
2019-Oct-04 16:00N 32°43' W 117°10'0 0.0
2019-Oct-04 15:30N 32°43' W 117°10'0 0.0
2019-Oct-04 15:00N 32°43' W 117°10'0 0.0
2019-Oct-04 14:30N 32°43' W 117°10'0 0.0
2019-Oct-04 14:01N 32°43' W 117°10'0 0.0
2019-Oct-04 13:31N 32°43' W 117°10'3 5.4
2019-Oct-04 13:01N 32°42' W 117°14'611.1
2019-Oct-04 12:31N 32°37' W 117°14'510.5
2019-Oct-04 12:01N 32°36' W 117°21'612.6
2019-Oct-04 11:31N 32°36' W 117°28'612.5
2019-Oct-04 11:01N 32°36' W 117°35'612.4
2019-Oct-04 10:30N 32°36' W 117°43'612.3
2019-Oct-04 10:00N 32°36' W 117°50'612.2
2019-Oct-04 09:31N 32°35' W 117°57'612.3
2019-Oct-04 09:00N 32°35' W 118°05'510.6
2019-Oct-04 08:31N 32°35' W 118°11'5 9.8
2019-Oct-04 08:00N 32°35' W 118°17'5 9.8
2019-Oct-04 07:30N 32°35' W 118°23'5 9.8
2019-Oct-04 07:01N 32°35' W 118°28'5 9.5
2019-Oct-04 06:30N 32°35' W 118°34'5 9.7
2019-Oct-04 06:00N 32°35' W 118°40'5 9.8
2019-Oct-04 05:30N 32°34' W 118°45'5 9.7
2019-Oct-04 05:00N 32°34' W 118°51'510.2
2019-Oct-04 04:30N 32°37' W 118°56'510.2
2019-Oct-04 04:00N 32°40' W 119°01'510.4
2019-Oct-04 03:31N 32°42' W 119°06'610.9
2019-Oct-04 02:58N 32°46' W 119°12'510.7
2019-Oct-04 02:29N 32°49' W 119°17'510.5
2019-Oct-04 02:00N 32°52' W 119°22'510.4
2019-Oct-04 01:31N 32°55' W 119°27'510.3
2019-Oct-04 01:01N 32°58' W 119°32'510.0
2019-Oct-04 00:30N 33°01' W 119°37'5 9.5
2019-Oct-04 00:01N 33°03' W 119°42'5 9.4
2019-Oct-03 23:31N 33°06' W 119°46'5 9.5
2019-Oct-03 23:00N 33°09' W 119°51'5 9.5
2019-Oct-03 22:30N 33°11' W 119°56'612.5
2019-Oct-03 22:01N 33°15' W 120°02'612.5
2019-Oct-03 21:30N 33°19' W 120°08'612.0
2019-Oct-03 21:00N 33°22' W 120°14'612.3
2019-Oct-03 20:30N 33°26' W 120°20'612.5
2019-Oct-03 20:00N 33°29' W 120°26'612.6
2019-Oct-03 19:31N 33°33' W 120°32'612.2
2019-Oct-03 19:00N 33°37' W 120°38'712.3
2019-Oct-03 18:27N 33°43' W 120°41'6312.3
2019-Oct-03 13:22N 34°40' W 121°13'512.2
2019-Oct-03 12:58N 34°44' W 121°15'612.1
2019-Oct-03 12:31N 34°49' W 121°18'10012.4
2019-Oct-03 04:31N 36°19' W 122°12'712.8
2019-Oct-03 04:00N 36°25' W 122°09'713.3
2019-Oct-03 03:29N 36°31' W 122°05'21 1.3
2019-Oct-02 11:42N 36°48' W 122°20'410.0
2019-Oct-02 11:17N 36°50' W 122°25'312.8
2019-Oct-02 11:00N 36°51' W 122°29'612.3
2019-Oct-02 10:30N 36°54' W 122°36'612.9
2019-Oct-02 10:01N 36°60' W 122°39'813.1
2019-Oct-02 09:25N 37°07' W 122°42'613.1
2019-Oct-02 08:59N 37°13' W 122°44'613.1
2019-Oct-02 08:30N 37°19' W 122°44'713.2
2019-Oct-02 08:00N 37°25' W 122°44'613.1
2019-Oct-02 07:30N 37°32' W 122°44'713.0
2019-Oct-02 07:00N 37°38' W 122°44'611.6
2019-Oct-02 06:30N 37°44' W 122°42'612.4
2019-Oct-02 06:00N 37°47' W 122°35'612.1
2019-Oct-02 05:30N 37°49' W 122°28'3 5.0
2019-Oct-02 04:59N 37°48' W 122°24'0 0.0
2019-Oct-02 04:29N 37°48' W 122°24'0 0.0
2019-Oct-02 03:59N 37°48' W 122°24'0 0.0
2019-Oct-02 03:29N 37°48' W 122°24'0 0.0
2019-Oct-02 02:59N 37°48' W 122°24'0 0.0
2019-Oct-02 02:29N 37°48' W 122°24'0 0.0
2019-Oct-02 01:59N 37°48' W 122°24'0 0.0
2019-Oct-02 01:29N 37°48' W 122°24'0 0.0
2019-Oct-02 00:56N 37°48' W 122°24'0 0.0
2019-Oct-02 00:26N 37°48' W 122°24'0 0.0
2019-Oct-01 23:59N 37°48' W 122°24'0 0.0
2019-Oct-01 23:29N 37°48' W 122°24'0 0.0
2019-Oct-01 22:56N 37°48' W 122°24'0 0.0
2019-Oct-01 22:29N 37°48' W 122°24'0 0.0
2019-Oct-01 21:59N 37°48' W 122°24'0 0.0
2019-Oct-01 21:29N 37°48' W 122°24'0 0.0
2019-Oct-01 20:56N 37°48' W 122°24'0 0.0
2019-Oct-01 20:29N 37°48' W 122°24'0 0.0
2019-Oct-01 19:59N 37°48' W 122°24'0 0.0
2019-Oct-01 19:29N 37°48' W 122°24'0 0.0
2019-Oct-01 18:59N 37°48' W 122°24'0 0.0
2019-Oct-01 18:29N 37°48' W 122°24'0 0.0
2019-Oct-01 17:59N 37°48' W 122°24'0 0.0
2019-Oct-01 17:29N 37°48' W 122°24'0 0.0
2019-Oct-01 16:59N 37°48' W 122°24'0 0.0
2019-Oct-01 16:29N 37°48' W 122°24'0 0.0
2019-Oct-01 15:59N 37°48' W 122°24'0 0.0
2019-Oct-01 15:29N 37°48' W 122°24'0 0.0
2019-Oct-01 14:59N 37°48' W 122°24'0 0.0
2019-Oct-01 14:29N 37°48' W 122°24'0 0.0
2019-Oct-01 13:59N 37°48' W 122°24'0 0.0
2019-Oct-01 13:29N 37°48' W 122°24'0 0.0
2019-Oct-01 12:59N 37°48' W 122°24'0 0.0
2019-Oct-01 12:29N 37°48' W 122°24'0 0.0
2019-Oct-01 11:59N 37°48' W 122°24'0 0.0
2019-Oct-01 11:29N 37°48' W 122°24'0 0.0
2019-Oct-01 10:59N 37°48' W 122°24'0 0.0
2019-Oct-01 10:23N 37°48' W 122°24'0 0.0
2019-Oct-01 09:59N 37°48' W 122°24'0 0.0
2019-Oct-01 09:29N 37°48' W 122°24'0 0.0
2019-Oct-01 08:59N 37°48' W 122°24'0 0.0
2019-Oct-01 08:29N 37°48' W 122°24'0 0.0
2019-Oct-01 07:59N 37°48' W 122°24'0 0.0
2019-Oct-01 07:29N 37°48' W 122°24'0 0.0
2019-Oct-01 06:59N 37°48' W 122°24'0 0.0
2019-Oct-01 06:29N 37°48' W 122°24'0 0.0
2019-Oct-01 05:59N 37°48' W 122°24'0 0.0
2019-Oct-01 05:29N 37°48' W 122°24'0 0.0
2019-Oct-01 04:59N 37°48' W 122°24'0 0.0
2019-Oct-01 04:29N 37°48' W 122°24'0 0.0
2019-Oct-01 03:59N 37°48' W 122°24'0 0.0
2019-Oct-01 03:28N 37°48' W 122°24'0 0.0
2019-Oct-01 02:59N 37°48' W 122°24'0 0.0
2019-Oct-01 02:29N 37°48' W 122°24'0 0.0
2019-Oct-01 01:59N 37°48' W 122°24'0 0.0
2019-Oct-01 01:29N 37°48' W 122°24'0 0.0
2019-Oct-01 00:58N 37°48' W 122°24'0 0.0
2019-Oct-01 00:28N 37°48' W 122°24'0 0.0
2019-Sep-30 23:59N 37°48' W 122°24'0 0.0
2019-Sep-30 23:29N 37°48' W 122°24'0 0.0
2019-Sep-30 22:58N 37°48' W 122°24'0 0.0
2019-Sep-30 22:28N 37°48' W 122°24'0 0.0
2019-Sep-30 21:58N 37°48' W 122°24'0 0.0
2019-Sep-30 21:28N 37°48' W 122°24'0 0.0
2019-Sep-30 20:59N 37°48' W 122°24'0 0.0
2019-Sep-30 20:28N 37°48' W 122°24'0 0.0
2019-Sep-30 19:58N 37°48' W 122°24'0 0.0
2019-Sep-30 19:28N 37°48' W 122°24'0 0.0
2019-Sep-30 18:58N 37°48' W 122°24'0 0.0
2019-Sep-30 18:28N 37°48' W 122°24'0 0.0
2019-Sep-30 17:58N 37°48' W 122°24'0 0.1
2019-Sep-30 17:30N 37°49' W 122°24'3 5.2
2019-Sep-30 17:01N 37°49' W 122°28'612.9
2019-Sep-30 16:31N 37°47' W 122°35'510.6
2019-Sep-30 16:00N 37°45' W 122°41'4 8.9
2019-Sep-30 15:31N 37°46' W 122°47'611.9
2019-Sep-30 15:01N 37°49' W 122°53'612.2
2019-Sep-30 14:30N 37°52' W 122°60'612.1
2019-Sep-30 14:01N 37°55' W 123°06'611.9
2019-Sep-30 13:30N 37°59' W 123°13'612.0
2019-Sep-30 13:00N 38°04' W 123°17'613.0
2019-Sep-30 12:31N 38°09' W 123°23'713.2
2019-Sep-30 12:01N 38°14' W 123°28'713.4
2019-Sep-30 11:30N 38°19' W 123°34'613.1
2019-Sep-30 11:01N 38°23' W 123°39'612.8
2019-Sep-30 10:30N 38°28' W 123°45'612.4
2019-Sep-30 10:01N 38°33' W 123°50'41113.1
2019-Sep-29 02:35N 45°22' W 124°29'313.5
2019-Sep-29 02:20N 45°26' W 124°28'2113.7
2019-Sep-29 00:49N 45°46' W 124°24'1113.4
2019-Sep-29 00:01N 45°57' W 124°21'312.8
2019-Sep-28 23:48N 45°59' W 124°20'512.3
2019-Sep-28 23:25N 46°03' W 124°17'510.6
2019-Sep-28 22:59N 46°07' W 124°13'7 8.2
2019-Sep-28 22:09N 46°13' W 124°08'910.6
2019-Sep-28 21:16N 46°12' W 123°55'15 9.5
2019-Sep-28 19:40N 46°15' W 123°34'310.5
2019-Sep-28 19:22N 46°16' W 123°29'410.4
2019-Sep-28 19:00N 46°13' W 123°26'7 8.9
2019-Sep-28 18:11N 46°09' W 123°17'210.9
2019-Sep-28 18:00N 46°09' W 123°15'510.8
2019-Sep-28 17:30N 46°11' W 123°08'612.5
2019-Sep-28 17:00N 46°08' W 123°00'510.9
2019-Sep-28 16:31N 46°05' W 122°54'10 9.7
2019-Sep-28 15:31N 45°56' W 122°48'011.3
2019-Sep-28 15:29N 45°55' W 122°48'5 9.2
2019-Sep-28 14:59N 45°51' W 122°47'611.9
2019-Sep-28 14:30N 45°45' W 122°46'611.6
2019-Sep-28 14:00N 45°39' W 122°46'3 6.9
2019-Sep-28 13:30N 45°36' W 122°47'1 1.2
2019-Sep-28 12:59N 45°36' W 122°46'0 0.0
2019-Sep-28 12:11N 45°36' W 122°46'0 0.0
2019-Sep-28 11:59N 45°36' W 122°46'0 0.0
2019-Sep-28 11:29N 45°36' W 122°46'0 0.0
2019-Sep-28 10:59N 45°36' W 122°46'0 0.0
2019-Sep-28 10:29N 45°36' W 122°46'0 0.0
2019-Sep-28 09:59N 45°36' W 122°46'0 0.0
2019-Sep-28 09:26N 45°36' W 122°46'0 0.0
2019-Sep-28 08:59N 45°36' W 122°46'0 0.0
2019-Sep-28 08:29N 45°36' W 122°46'0 0.0
2019-Sep-28 07:59N 45°36' W 122°46'0 0.0
2019-Sep-28 07:26N 45°36' W 122°46'0 0.0
2019-Sep-28 06:56N 45°36' W 122°46'0 0.0
2019-Sep-28 06:29N 45°36' W 122°46'0 0.0
2019-Sep-28 05:41N 45°36' W 122°46'0 0.0
2019-Sep-28 05:23N 45°36' W 122°46'0 0.0
2019-Sep-28 04:56N 45°36' W 122°46'0 0.0
2019-Sep-28 04:23N 45°36' W 122°46'0 0.0
2019-Sep-28 03:53N 45°36' W 122°46'0 0.0
2019-Sep-28 03:28N 45°36' W 122°46'0 0.0
2019-Sep-28 02:43N 45°36' W 122°46'0 0.1
2019-Sep-28 02:28N 45°36' W 122°46'0 0.0
2019-Sep-28 01:58N 45°36' W 122°46'0 0.0
2019-Sep-28 01:13N 45°36' W 122°46'0 0.0
2019-Sep-28 00:52N 45°36' W 122°46'0 0.0
2019-Sep-27 13:25N 45°36' W 122°46'0 0.0
2019-Sep-27 13:00N 45°36' W 122°46'1 2.8
2019-Sep-27 12:29N 45°37' W 122°47'3 5.4
2019-Sep-27 12:00N 45°39' W 122°46'5 9.9
2019-Sep-27 11:28N 45°45' W 122°46'511.2
2019-Sep-27 11:00N 45°50' W 122°48'611.4
2019-Sep-27 10:27N 45°56' W 122°48'511.2
2019-Sep-27 10:00N 46°01' W 122°51'511.0
2019-Sep-27 09:30N 46°05' W 122°55'611.9
2019-Sep-27 09:00N 46°09' W 123°02'611.5
2019-Sep-27 08:30N 46°11' W 123°09'611.4
2019-Sep-27 08:00N 46°09' W 123°17'5 9.7
2019-Sep-27 07:30N 46°09' W 123°24'5 9.6
2019-Sep-27 07:00N 46°14' W 123°26'510.4
2019-Sep-27 06:30N 46°15' W 123°33'714.1
2019-Sep-27 05:59N 46°14' W 123°43'611.3
2019-Sep-27 05:29N 46°12' W 123°51'612.8
2019-Sep-27 05:00N 46°14' W 123°59'611.8
2019-Sep-27 04:30N 46°14' W 124°07'8 8.9
2019-Sep-27 03:39N 46°14' W 124°18'211.7
2019-Sep-27 03:27N 46°16' W 124°21'510.2
2019-Sep-27 02:57N 46°20' W 124°25'510.3
2019-Sep-27 02:30N 46°24' W 124°28'12511.3
2019-Sep-26 15:29N 48°17' W 125°46'5 9.9
2019-Sep-26 15:00N 48°19' W 125°40'510.2
2019-Sep-26 14:30N 48°22' W 125°34'510.3
2019-Sep-26 14:00N 48°25' W 125°27'710.2
2019-Sep-26 13:21N 48°28' W 125°18'410.9
2019-Sep-26 12:56N 48°30' W 125°12'510.4
2019-Sep-26 12:30N 48°31' W 125°06'510.9
2019-Sep-26 12:01N 48°31' W 124°57'510.3
2019-Sep-26 11:31N 48°31' W 124°50'510.4
2019-Sep-26 11:01N 48°30' W 124°42'510.0
2019-Sep-26 10:31N 48°28' W 124°35'510.1
2019-Sep-26 10:00N 48°26' W 124°28'510.4
2019-Sep-26 09:30N 48°24' W 124°21'611.2
2019-Sep-26 09:01N 48°22' W 124°13'611.4
2019-Sep-26 08:31N 48°20' W 124°05'611.0
2019-Sep-26 08:01N 48°18' W 123°57'611.5
2019-Sep-26 07:30N 48°17' W 123°49'511.0
2019-Sep-26 07:00N 48°17' W 123°40'511.0
2019-Sep-26 06:30N 48°15' W 123°32'611.9
2019-Sep-26 06:00N 48°12' W 123°25'510.1
2019-Sep-26 05:30N 48°09' W 123°19'714.4
2019-Sep-26 04:59N 48°12' W 123°09'714.5
2019-Sep-26 04:30N 48°12' W 122°58'915.4
2019-Sep-26 03:54N 48°10' W 122°45'715.7
2019-Sep-26 03:29N 48°05' W 122°39'816.3
2019-Sep-26 03:00N 47°57' W 122°33'715.0
2019-Sep-26 02:30N 47°51' W 122°28'  

Dump ship's entire track history